Time;durP1;ratioP1;P1;durP2;ratioP2;P2;SDS_P1;SDS_P2;PMS_P1;PMS_P2;Temp;Humidity;BMP_temperature;BMP_pressure;BME280_temperature;BME280_humidity;BME280_pressure;Samples;Min_cycle;Max_cycle;Signal;HPM_P1;HPM_P2
2022/11/28 00:00:20;;;;;;;19.75;13.70;;;5.70;99.90;;;;;;1900981;74;21082;-88
2022/11/28 00:03:12;;;;;;;18.07;13.38;;;5.70;99.90;;;;;;1885313;75;21115;-88
2022/11/28 00:06:06;;;;;;;19.12;13.78;;;5.60;99.90;;;;;;1873991;75;21209;-87
2022/11/28 00:08:59;;;;;;;21.30;14.07;;;5.50;99.90;;;;;;1886903;75;21114;-87
2022/11/28 00:11:51;;;;;;;20.17;13.90;;;5.40;99.90;;;;;;1882832;75;21106;-87
2022/11/28 00:14:43;;;;;;;19.35;13.48;;;5.40;99.90;;;;;;1887178;75;21457;-87
2022/11/28 00:17:35;;;;;;;19.52;13.48;;;5.50;99.90;;;;;;1894179;75;21103;-87
2022/11/28 00:20:26;;;;;;;18.52;13.80;;;5.50;99.90;;;;;;1882217;75;21165;-87
2022/11/28 00:23:17;;;;;;;19.23;14.13;;;5.50;99.90;;;;;;1894548;75;21175;-87
2022/11/28 00:26:11;;;;;;;17.70;13.15;;;5.40;99.90;;;;;;1883580;75;21100;-87
2022/11/28 00:29:03;;;;;;;18.75;13.93;;;5.50;99.90;;;;;;1883265;75;21107;-87
2022/11/28 00:31:55;;;;;;;19.25;14.40;;;5.40;99.90;;;;;;1895070;75;21619;-88
2022/11/28 00:34:47;;;;;;;18.70;13.60;;;5.30;99.90;;;;;;1882493;75;21123;-88
2022/11/28 00:37:39;;;;;;;18.75;13.85;;;5.30;99.90;;;;;;1898126;75;21122;-87
2022/11/28 00:40:30;;;;;;;18.92;13.70;;;5.40;99.90;;;;;;1884823;75;21145;-88
2022/11/28 00:43:21;;;;;;;19.35;13.40;;;5.40;99.90;;;;;;1894379;75;21120;-87
2022/11/28 00:46:14;;;;;;;18.85;13.50;;;5.30;99.90;;;;;;1882257;75;21128;-88
2022/11/28 00:49:06;;;;;;;18.32;13.03;;;5.30;99.90;;;;;;1884423;75;21065;-88
2022/11/28 00:51:57;;;;;;;17.02;12.53;;;5.40;99.90;;;;;;1882076;75;21543;-87
2022/11/28 00:54:52;;;;;;;17.12;12.30;;;5.40;99.90;;;;;;1902908;74;21125;-87
2022/11/28 00:57:43;;;;;;;16.87;12.10;;;5.40;99.90;;;;;;1903958;74;21195;-87
2022/11/28 01:00:35;;;;;;;16.10;11.80;;;5.50;99.90;;;;;;1904054;74;21126;-88
2022/11/28 01:03:26;;;;;;;15.75;11.80;;;5.50;99.90;;;;;;1919031;73;21139;-87
2022/11/28 01:06:24;;;;;;;15.38;11.38;;;5.40;99.90;;;;;;1904445;74;21137;-88
2022/11/28 01:09:18;;;;;;;19.15;12.45;;;5.40;99.90;;;;;;1904137;74;21087;-87
2022/11/28 01:12:09;;;;;;;17.75;11.95;;;5.50;99.90;;;;;;1904129;74;21129;-87
2022/11/28 01:15:01;;;;;;;18.27;12.33;;;5.50;99.90;;;;;;1905483;74;21109;-87
2022/11/28 01:17:53;;;;;;;18.42;12.58;;;5.40;99.90;;;;;;1907983;74;21114;-88
2022/11/28 01:20:45;;;;;;;18.12;12.23;;;5.30;99.90;;;;;;1893635;74;21117;-87
2022/11/28 01:23:36;;;;;;;16.50;11.53;;;5.30;99.90;;;;;;1919353;74;21077;-88
2022/11/28 01:26:30;;;;;;;17.25;11.73;;;5.40;99.90;;;;;;1925723;74;21180;-88
2022/11/28 01:29:21;;;;;;;17.45;11.90;;;5.30;99.90;;;;;;1892909;76;21109;-87
2022/11/28 01:32:13;;;;;;;16.40;11.80;;;5.30;99.90;;;;;;1904840;74;21160;-88
2022/11/28 01:35:05;;;;;;;21.12;11.93;;;5.30;99.90;;;;;;1903965;74;21150;-87
2022/11/28 01:37:57;;;;;;;15.93;11.73;;;5.30;99.90;;;;;;1904387;74;21183;-87
2022/11/28 01:40:49;;;;;;;16.02;12.30;;;5.20;99.90;;;;;;1907900;74;21160;-87
2022/11/28 01:43:59;;;;;;;16.23;12.00;;;5.20;99.90;;;;;;1906657;74;21076;-87
2022/11/28 01:46:50;;;;;;;15.70;11.53;;;5.30;99.90;;;;;;1905401;74;21504;-88
2022/11/28 01:49:44;;;;;;;17.77;12.63;;;5.30;99.90;;;;;;1903814;74;21159;-87
2022/11/28 01:52:38;;;;;;;13.88;10.63;;;5.30;99.90;;;;;;1903883;74;21147;-87
2022/11/28 01:58:14;;;;;;;14.93;10.60;;;5.40;99.90;;;;;;1950542;72;22322;-88
2022/11/28 02:01:07;;;;;;;14.68;10.03;;;5.40;99.90;;;;;;1890197;73;21111;-88
2022/11/28 02:06:44;;;;;;;15.03;10.68;;;5.50;99.90;;;;;;1938964;72;22274;-88
2022/11/28 02:09:36;;;;;;;14.98;10.63;;;5.50;99.90;;;;;;1897001;75;21175;-88
2022/11/28 02:12:45;;;;;;;15.88;10.58;;;5.50;99.90;;;;;;1909468;75;21173;-86
2022/11/28 02:15:46;;;;;;;13.50;9.48;;;5.40;99.90;;;;;;1907034;75;21600;-86
2022/11/28 02:18:50;;;;;;;12.37;9.28;;;5.50;99.90;;;;;;1906149;75;21094;-86
2022/11/28 02:21:53;;;;;;;11.68;8.50;;;5.60;99.90;;;;;;1906004;75;21144;-86
2022/11/28 02:25:08;;;;;;;12.75;8.70;;;5.60;99.90;;;;;;1904756;75;21110;-86
2022/11/28 02:28:49;;;;;;;12.33;8.65;;;5.60;99.90;;;;;;1904196;75;21117;-87
2022/11/28 02:32:15;;;;;;;10.08;7.75;;;5.70;99.90;;;;;;1887847;74;21107;-88
2022/11/28 02:35:10;;;;;;;12.40;8.25;;;5.80;99.90;;;;;;1888729;75;21150;-86
2022/11/28 02:38:06;;;;;;;10.35;7.35;;;5.80;99.90;;;;;;1906020;75;21129;-88
2022/11/28 02:41:02;;;;;;;9.55;7.53;;;5.80;99.90;;;;;;1904727;75;21090;-87
2022/11/28 02:46:40;;;;;;;10.72;8.08;;;5.90;99.90;;;;;;1942709;72;22146;-88
2022/11/28 02:49:35;;;;;;;10.63;7.55;;;5.90;99.90;;;;;;1927443;74;21150;-87
2022/11/28 02:52:30;;;;;;;10.38;7.30;;;5.90;99.90;;;;;;1927745;74;21507;-87
2022/11/28 02:55:22;;;;;;;8.63;6.50;;;5.90;99.90;;;;;;1904907;75;21507;-87
2022/11/28 02:58:14;;;;;;;10.30;7.67;;;5.80;99.90;;;;;;1904025;74;21189;-87
2022/11/28 03:01:11;;;;;;;9.38;7.30;;;5.80;99.90;;;;;;1904719;75;21091;-87
2022/11/28 03:04:22;;;;;;;10.75;7.50;;;5.80;99.90;;;;;;1904251;75;21106;-86
2022/11/28 03:07:19;;;;;;;10.28;7.33;;;5.80;99.90;;;;;;1907274;74;21163;-89
2022/11/28 03:10:17;;;;;;;11.00;7.50;;;5.80;99.90;;;;;;1917345;74;21146;-87
2022/11/28 03:13:11;;;;;;;11.10;7.35;;;5.80;99.90;;;;;;1904844;75;21139;-86
2022/11/28 03:18:52;;;;;;;13.08;8.25;;;5.80;99.90;;;;;;1952085;72;22178;-87
2022/11/28 03:24:38;;;;;;;10.38;7.35;;;5.70;99.90;;;;;;1957278;72;22194;-88
2022/11/28 03:27:33;;;;;;;10.20;7.12;;;5.70;99.90;;;;;;1916819;75;21102;-88
2022/11/28 03:30:29;;;;;;;9.70;7.05;;;5.60;99.90;;;;;;1940004;73;21245;-87
2022/11/28 03:33:22;;;;;;;10.70;7.12;;;5.60;99.90;;;;;;1917128;75;21107;-87
2022/11/28 03:39:05;;;;;;;8.70;6.42;;;5.50;99.90;;;;;;1933478;74;22198;-87
2022/11/28 03:42:00;;;;;;;9.90;6.80;;;5.60;99.90;;;;;;1876786;75;21191;-87
2022/11/28 03:44:55;;;;;;;9.23;6.72;;;5.60;99.90;;;;;;1876203;75;21116;-88
2022/11/28 03:47:51;;;;;;;8.23;6.55;;;5.60;99.90;;;;;;1897806;75;21152;-87
2022/11/28 03:50:45;;;;;;;8.60;6.37;;;5.60;99.90;;;;;;1868643;77;21133;-88
2022/11/28 03:53:41;;;;;;;9.05;6.92;;;5.50;99.90;;;;;;1865563;77;21229;-88
2022/11/28 03:56:36;;;;;;;9.45;6.35;;;5.50;99.90;;;;;;1887054;75;21079;-88
2022/11/28 03:59:29;;;;;;;9.85;6.60;;;5.50;99.90;;;;;;1869523;77;21098;-88
2022/11/28 04:02:25;;;;;;;8.33;5.95;;;5.60;99.90;;;;;;1884389;74;21105;-87
2022/11/28 04:05:19;;;;;;;9.63;6.10;;;5.60;99.90;;;;;;1867792;74;21136;-88
2022/11/28 04:08:16;;;;;;;8.78;6.22;;;5.70;99.90;;;;;;1836952;78;21103;-88
2022/11/28 04:11:11;;;;;;;9.73;6.85;;;5.70;99.90;;;;;;1895387;76;21142;-88
2022/11/28 04:16:49;;;;;;;8.00;5.95;;;5.70;99.90;;;;;;1957639;72;22248;-88
2022/11/28 04:19:46;;;;;;;8.38;5.35;;;5.70;99.90;;;;;;1901848;75;21098;-88
2022/11/28 04:22:41;;;;;;;9.45;6.47;;;5.70;99.90;;;;;;1884660;75;21206;-87
2022/11/28 04:25:35;;;;;;;8.33;6.58;;;5.60;99.90;;;;;;1892729;75;21136;-87
2022/11/28 04:28:30;;;;;;;7.67;5.80;;;5.60;99.90;;;;;;1895180;75;21114;-87
2022/11/28 04:31:23;;;;;;;8.93;5.92;;;5.60;99.90;;;;;;1916718;75;21221;-88
2022/11/28 04:34:18;;;;;;;9.63;6.22;;;5.60;99.90;;;;;;1900113;75;21632;-88
2022/11/28 04:37:13;;;;;;;8.50;5.70;;;5.60;99.90;;;;;;1895917;75;21135;-87
2022/11/28 04:40:11;;;;;;;8.93;5.92;;;5.60;99.90;;;;;;1894304;75;21060;-87
2022/11/28 04:43:05;;;;;;;6.35;4.95;;;5.50;99.90;;;;;;1914089;75;21059;-87
2022/11/28 04:46:00;;;;;;;8.18;5.08;;;5.60;99.90;;;;;;1904227;75;21113;-87
2022/11/28 04:48:52;;;;;;;6.17;4.92;;;5.70;99.90;;;;;;1901517;75;21050;-87
2022/11/28 04:54:29;;;;;;;8.58;6.65;;;5.70;99.90;;;;;;1949861;72;22284;-87
2022/11/28 04:57:23;;;;;;;13.53;7.62;;;5.70;99.90;;;;;;1904879;75;21106;-87
2022/11/28 05:00:17;;;;;;;9.75;6.75;;;5.70;99.90;;;;;;1900339;75;21095;-87
2022/11/28 05:03:10;;;;;;;10.70;6.95;;;5.70;99.90;;;;;;1895842;75;21143;-87
2022/11/28 05:06:02;;;;;;;10.63;6.72;;;5.60;99.90;;;;;;1894802;75;21169;-87
2022/11/28 05:08:53;;;;;;;8.58;6.42;;;5.60;99.90;;;;;;1892086;75;21104;-87
2022/11/28 05:11:45;;;;;;;9.88;7.00;;;5.60;99.90;;;;;;1904222;75;21130;-87
2022/11/28 05:14:37;;;;;;;9.60;7.35;;;5.60;99.90;;;;;;1902927;75;21061;-87
2022/11/28 05:17:28;;;;;;;9.63;6.92;;;5.60;99.90;;;;;;1884528;76;21160;-87
2022/11/28 05:20:19;;;;;;;9.68;6.60;;;5.70;99.90;;;;;;1906199;75;21138;-87
2022/11/28 05:23:11;;;;;;;11.88;7.70;;;5.70;99.90;;;;;;1904448;75;21127;-87
2022/11/28 05:26:06;;;;;;;8.50;5.62;;;5.80;99.90;;;;;;1901661;75;21110;-87
2022/11/28 05:28:58;;;;;;;6.37;5.08;;;5.90;99.90;;;;;;1883900;76;21071;-87
2022/11/28 05:31:51;;;;;;;7.40;5.62;;;5.90;99.90;;;;;;1906388;75;21100;-87
2022/11/28 05:34:43;;;;;;;8.93;6.03;;;5.90;99.90;;;;;;1883953;76;21082;-87
2022/11/28 05:37:35;;;;;;;9.98;5.85;;;5.90;99.90;;;;;;1884400;76;21123;-86
2022/11/28 05:40:27;;;;;;;9.43;6.42;;;5.90;99.90;;;;;;1897479;75;21228;-86
2022/11/28 05:43:18;;;;;;;10.10;5.72;;;5.80;99.90;;;;;;1895034;75;21165;-86
2022/11/28 05:46:11;;;;;;;8.53;5.58;;;5.80;99.90;;;;;;1895038;75;21102;-88
2022/11/28 05:51:45;;;;;;;10.68;5.92;;;5.80;99.90;;;;;;1954518;72;22194;-88
2022/11/28 05:54:37;;;;;;;7.62;5.28;;;5.80;99.90;;;;;;1895321;74;21185;-87
2022/11/28 05:57:30;;;;;;;9.70;6.10;;;5.90;99.90;;;;;;1895199;75;21184;-87
2022/11/28 06:00:23;;;;;;;7.33;5.45;;;5.90;99.90;;;;;;1917216;75;21047;-86
2022/11/28 06:03:15;;;;;;;8.10;5.97;;;5.90;99.90;;;;;;1898524;75;21186;-86
2022/11/28 06:06:11;;;;;;;7.15;5.17;;;5.80;99.90;;;;;;1894975;75;21102;-87
2022/11/28 06:09:05;;;;;;;8.25;5.28;;;5.80;99.90;;;;;;1905581;75;21059;-86
2022/11/28 06:11:59;;;;;;;7.17;5.53;;;5.80;99.90;;;;;;1884020;75;21130;-86
2022/11/28 06:14:50;;;;;;;8.90;5.97;;;5.80;99.90;;;;;;1883654;75;21145;-86
2022/11/28 06:17:42;;;;;;;7.25;5.37;;;5.80;99.90;;;;;;1896579;75;21091;-87
2022/11/28 06:20:35;;;;;;;7.40;5.50;;;5.80;99.90;;;;;;1887957;75;21172;-87
2022/11/28 06:23:27;;;;;;;11.08;5.70;;;5.70;99.90;;;;;;1903958;75;21165;-88
2022/11/28 06:26:20;;;;;;;9.75;6.17;;;5.70;99.90;;;;;;1898139;75;21533;-88
2022/11/28 06:29:12;;;;;;;8.93;5.72;;;5.70;99.90;;;;;;1884666;76;21106;-87
2022/11/28 06:32:03;;;;;;;8.28;6.10;;;5.70;99.90;;;;;;1906524;75;21078;-85
2022/11/28 06:34:57;;;;;;;9.43;6.00;;;5.80;99.90;;;;;;1906226;75;21551;-87
2022/11/28 06:37:48;;;;;;;7.87;5.45;;;5.80;99.90;;;;;;1905451;75;21102;-87
2022/11/28 06:40:41;;;;;;;12.73;6.37;;;5.90;99.90;;;;;;1880880;76;21355;-87
2022/11/28 06:43:33;;;;;;;10.98;6.90;;;5.90;99.90;;;;;;1895934;75;21059;-87
2022/11/28 06:46:24;;;;;;;13.32;7.12;;;5.90;99.90;;;;;;1909883;75;21192;-87
2022/11/28 06:49:15;;;;;;;9.88;6.35;;;5.90;99.90;;;;;;1905979;75;21091;-87
2022/11/28 06:52:07;;;;;;;7.95;6.17;;;5.90;99.90;;;;;;1914154;74;21141;-88
2022/11/28 06:54:59;;;;;;;12.05;5.85;;;5.90;99.90;;;;;;1919681;74;21167;-87
2022/11/28 06:57:57;;;;;;;14.13;5.85;;;5.90;99.90;;;;;;1914782;74;21082;-87
2022/11/28 07:00:49;;;;;;;9.83;5.95;;;5.90;99.90;;;;;;1911001;74;21101;-87
2022/11/28 07:03:42;;;;;;;8.23;5.72;;;5.90;99.90;;;;;;1911038;74;21102;-87
2022/11/28 07:06:35;;;;;;;10.23;5.92;;;6.00;99.90;;;;;;1870021;76;21235;-87
2022/11/28 07:12:13;;;;;;;9.25;6.12;;;6.00;99.90;;;;;;1939964;72;22130;-87
2022/11/28 07:17:45;;;;;;;8.90;6.03;;;6.00;99.90;;;;;;1950199;72;22210;-88
2022/11/28 07:20:36;;;;;;;11.80;6.10;;;6.10;99.90;;;;;;1885216;75;21144;-87
2022/11/28 07:23:28;;;;;;;8.28;5.92;;;6.10;99.90;;;;;;1882795;75;21152;-87
2022/11/28 07:26:23;;;;;;;9.40;5.65;;;6.10;99.90;;;;;;1885402;75;21177;-87
2022/11/28 07:29:17;;;;;;;10.05;5.95;;;6.10;99.90;;;;;;1886722;75;21086;-87
2022/11/28 07:32:08;;;;;;;10.65;6.12;;;6.10;99.90;;;;;;1891640;73;21109;-87
2022/11/28 07:35:03;;;;;;;9.60;5.90;;;6.10;99.90;;;;;;1890456;73;21201;-86
2022/11/28 07:37:55;;;;;;;9.75;5.80;;;6.20;99.90;;;;;;1893562;75;21088;-86
2022/11/28 07:40:47;;;;;;;8.08;5.25;;;6.20;99.90;;;;;;1872125;76;21155;-89
2022/11/28 07:43:41;;;;;;;9.48;5.78;;;6.20;99.90;;;;;;1882933;75;21091;-87
2022/11/28 07:46:34;;;;;;;14.93;6.85;;;6.30;99.90;;;;;;1903593;75;21205;-89
2022/11/28 07:49:26;;;;;;;9.03;6.00;;;6.20;99.90;;;;;;1917776;73;21732;-89
2022/11/28 07:52:18;;;;;;;9.78;6.40;;;6.30;99.90;;;;;;1879799;76;21110;-88
2022/11/28 07:55:11;;;;;;;6.58;5.03;;;6.20;99.90;;;;;;1872257;75;21147;-87
2022/11/28 07:58:02;;;;;;;11.30;5.83;;;6.30;99.90;;;;;;1876986;75;21181;-87
2022/11/28 08:00:55;;;;;;;9.05;5.83;;;6.40;99.90;;;;;;1893034;73;21094;-87
2022/11/28 08:03:48;;;;;;;11.40;6.10;;;6.40;99.90;;;;;;1884004;75;21177;-87
2022/11/28 08:06:42;;;;;;;9.20;6.37;;;6.50;99.90;;;;;;1888503;75;21130;-88
2022/11/28 08:09:33;;;;;;;10.13;6.22;;;6.50;99.90;;;;;;1874450;75;21060;-87
2022/11/28 08:12:28;;;;;;;9.78;6.05;;;6.50;99.90;;;;;;1921119;73;21093;-87
2022/11/28 08:15:21;;;;;;;9.00;5.53;;;6.50;99.90;;;;;;1919473;73;21102;-87
2022/11/28 08:18:12;;;;;;;10.88;6.10;;;6.50;99.90;;;;;;1909695;75;21130;-87
2022/11/28 08:21:09;;;;;;;9.55;5.90;;;6.60;99.90;;;;;;1894596;73;21095;-87
2022/11/28 08:24:02;;;;;;;11.08;5.60;;;6.60;99.90;;;;;;1899843;74;21175;-86
2022/11/28 08:26:53;;;;;;;12.07;6.05;;;6.60;99.90;;;;;;1895736;75;21094;-87
2022/11/28 08:29:48;;;;;;;9.78;5.58;;;6.70;99.90;;;;;;1894698;73;21187;-87
2022/11/28 08:32:45;;;;;;;10.65;5.83;;;6.70;99.90;;;;;;1879082;76;21180;-87
2022/11/28 08:35:43;;;;;;;8.90;5.62;;;6.80;99.90;;;;;;1891822;75;21126;-86
2022/11/28 08:38:35;;;;;;;7.80;5.50;;;6.90;99.90;;;;;;1899910;75;21134;-87
2022/11/28 08:41:27;;;;;;;9.85;5.50;;;6.90;99.90;;;;;;1899516;75;21164;-88
2022/11/28 08:44:23;;;;;;;8.33;5.12;;;7.00;99.90;;;;;;1875764;76;21114;-87
2022/11/28 08:47:14;;;;;;;9.03;5.53;;;7.10;99.90;;;;;;1875308;76;21168;-87
2022/11/28 08:50:08;;;;;;;10.85;6.42;;;7.00;99.90;;;;;;1840768;78;21121;-86
2022/11/28 08:53:01;;;;;;;13.22;6.83;;;7.00;99.90;;;;;;1899414;75;21160;-86
2022/11/28 08:55:54;;;;;;;9.50;5.62;;;7.00;99.90;;;;;;1829199;77;21110;-87
2022/11/28 08:58:48;;;;;;;10.00;5.37;;;6.90;99.90;;;;;;1898301;75;21091;-86
2022/11/28 09:01:41;;;;;;;10.00;5.80;;;6.90;99.90;;;;;;1890817;75;21067;-88
2022/11/28 09:04:33;;;;;;;8.40;5.60;;;6.70;99.90;;;;;;1888653;75;21155;-88
2022/11/28 09:07:25;;;;;;;11.78;6.35;;;6.70;99.90;;;;;;1883657;75;21172;-88
2022/11/28 09:10:17;;;;;;;10.32;6.25;;;6.70;99.90;;;;;;1898451;75;21085;-87
2022/11/28 09:13:09;;;;;;;9.05;6.28;;;6.70;99.90;;;;;;1893618;75;21051;-87
2022/11/28 09:16:00;;;;;;;11.88;6.65;;;6.70;99.90;;;;;;1889339;75;21132;-86
2022/11/28 09:18:52;;;;;;;17.73;8.13;;;6.70;99.90;;;;;;1884276;75;21140;-87
2022/11/28 09:21:44;;;;;;;16.05;7.53;;;6.70;99.90;;;;;;1881861;75;21225;-89
2022/11/28 09:24:36;;;;;;;12.75;7.20;;;6.80;99.90;;;;;;1886507;75;21182;-87
2022/11/28 09:27:28;;;;;;;14.25;8.03;;;6.80;99.90;;;;;;1884681;74;21084;-88
2022/11/28 09:30:21;;;;;;;11.53;7.25;;;7.00;99.90;;;;;;1888296;75;21118;-86
2022/11/28 09:33:13;;;;;;;9.68;6.47;;;7.10;99.90;;;;;;1872564;75;21043;-87
2022/11/28 09:36:08;;;;;;;9.90;6.60;;;7.10;99.90;;;;;;1891182;75;21119;-87
2022/11/28 09:39:01;;;;;;;17.23;6.42;;;7.30;99.90;;;;;;1870476;76;21165;-87
2022/11/28 09:42:00;;;;;;;12.43;6.50;;;7.30;99.90;;;;;;1903679;75;21145;-87
2022/11/28 09:44:55;;;;;;;13.72;7.95;;;7.30;99.90;;;;;;1898201;75;21128;-87
2022/11/28 09:47:49;;;;;;;13.22;7.78;;;7.40;99.90;;;;;;1892935;75;21102;-86
2022/11/28 09:50:43;;;;;;;16.95;9.83;;;7.50;99.90;;;;;;1889566;75;21218;-86
2022/11/28 09:53:40;;;;;;;13.10;7.47;;;7.40;99.90;;;;;;1886774;75;21082;-87
2022/11/28 09:56:32;;;;;;;10.08;6.80;;;7.30;99.90;;;;;;1881999;75;21483;-87
2022/11/28 09:59:27;;;;;;;14.85;7.75;;;7.30;99.90;;;;;;1880701;75;21134;-88
2022/11/28 10:02:27;;;;;;;14.95;7.60;;;7.30;99.90;;;;;;1898613;75;21106;-88
2022/11/28 10:05:23;;;;;;;15.75;7.83;;;7.30;99.90;;;;;;1892196;75;21168;-87
2022/11/28 10:08:25;;;;;;;11.53;7.60;;;7.40;99.90;;;;;;1874686;75;21087;-87
2022/11/28 10:11:23;;;;;;;13.60;7.87;;;7.40;99.90;;;;;;1887867;75;21128;-87
2022/11/28 10:14:26;;;;;;;13.55;7.67;;;7.40;99.90;;;;;;1875506;75;21134;-87
2022/11/28 10:17:22;;;;;;;9.93;6.57;;;7.50;99.90;;;;;;1874183;75;21111;-87
2022/11/28 10:20:18;;;;;;;15.40;7.37;;;7.50;99.90;;;;;;1895590;75;21087;-86
2022/11/28 10:23:14;;;;;;;17.05;8.50;;;7.50;99.90;;;;;;1871735;76;21128;-87
2022/11/28 10:26:10;;;;;;;12.05;8.03;;;7.50;99.90;;;;;;1892164;75;21152;-87
2022/11/28 10:29:05;;;;;;;12.90;8.05;;;7.60;99.90;;;;;;1887031;75;21144;-87
2022/11/28 10:32:00;;;;;;;18.73;8.28;;;7.60;99.90;;;;;;1881069;75;21083;-87
2022/11/28 10:34:55;;;;;;;11.25;7.33;;;7.70;99.90;;;;;;1877568;75;21285;-87
2022/11/28 10:37:48;;;;;;;10.55;7.92;;;7.60;99.90;;;;;;1874535;75;21075;-87
2022/11/28 10:40:44;;;;;;;9.95;6.80;;;7.60;99.90;;;;;;1884682;75;21115;-87
2022/11/28 10:43:42;;;;;;;12.70;8.50;;;7.60;99.90;;;;;;1869851;76;21087;-89
2022/11/28 10:46:45;;;;;;;14.58;8.58;;;7.60;99.90;;;;;;1895708;75;21143;-87
2022/11/28 10:52:24;;;;;;;13.48;8.63;;;7.70;99.90;;;;;;1952330;72;22194;-88
2022/11/28 10:55:29;;;;;;;12.70;8.05;;;7.90;99.90;;;;;;1900710;75;21171;-88
2022/11/28 11:01:04;;;;;;;11.63;7.50;;;8.00;99.90;;;;;;1951304;72;22268;-89
2022/11/28 11:03:56;;;;;;;12.82;7.90;;;8.00;99.90;;;;;;1924855;73;21275;-87
2022/11/28 11:06:56;;;;;;;12.07;7.72;;;8.00;99.90;;;;;;1916858;75;21128;-87
2022/11/28 11:09:53;;;;;;;9.55;7.42;;;8.20;99.90;;;;;;1916994;75;21095;-87
2022/11/28 11:12:49;;;;;;;14.28;8.55;;;8.20;99.90;;;;;;1916698;75;21141;-88
2022/11/28 11:15:45;;;;;;;12.80;7.80;;;8.30;99.90;;;;;;1939033;73;21106;-87
2022/11/28 11:18:41;;;;;;;12.35;7.87;;;8.30;99.90;;;;;;1917093;75;21171;-88
2022/11/28 11:21:33;;;;;;;10.15;6.78;;;8.40;99.90;;;;;;1916600;75;21177;-87
2022/11/28 11:24:25;;;;;;;10.55;6.67;;;8.40;99.90;;;;;;1916921;74;21171;-87
2022/11/28 11:27:19;;;;;;;12.25;7.95;;;8.50;99.90;;;;;;1916812;75;21117;-88
2022/11/28 11:30:27;;;;;;;12.93;7.25;;;8.60;99.90;;;;;;1916869;75;21154;-89
2022/11/28 11:33:20;;;;;;;11.28;6.83;;;8.70;99.90;;;;;;1917066;73;21106;-88
2022/11/28 11:36:24;;;;;;;9.83;6.42;;;8.70;99.90;;;;;;1916887;75;21162;-89
2022/11/28 11:39:24;;;;;;;10.72;7.20;;;8.70;99.90;;;;;;1917438;75;21584;-88
2022/11/28 11:42:24;;;;;;;7.87;6.25;;;8.80;99.90;;;;;;1916865;75;21146;-87
2022/11/28 11:45:32;;;;;;;11.38;7.05;;;8.80;99.90;;;;;;1917205;75;21101;-86
2022/11/28 11:48:30;;;;;;;11.03;6.60;;;8.80;99.90;;;;;;1916707;75;21058;-87
2022/11/28 11:51:27;;;;;;;10.32;6.50;;;8.90;99.90;;;;;;1916904;75;21240;-87
2022/11/28 11:54:20;;;;;;;9.43;7.12;;;8.90;99.90;;;;;;1916863;75;21084;-87
2022/11/28 11:57:14;;;;;;;11.03;7.37;;;8.90;99.90;;;;;;1916805;75;21191;-87
2022/11/28 12:00:11;;;;;;;10.35;7.92;;;8.90;99.90;;;;;;1914832;75;21240;-89
2022/11/28 12:03:13;;;;;;;12.20;7.72;;;8.80;99.90;;;;;;1917359;75;21078;-88
2022/11/28 12:06:14;;;;;;;12.73;7.60;;;8.80;99.90;;;;;;1916830;73;21113;-87
2022/11/28 12:09:10;;;;;;;11.83;8.40;;;8.80;99.90;;;;;;1916653;75;21166;-86
2022/11/28 12:12:07;;;;;;;12.43;7.83;;;8.80;99.90;;;;;;1904246;75;21087;-90
2022/11/28 12:14:59;;;;;;;15.03;7.83;;;8.80;99.90;;;;;;1915691;75;21136;-87
2022/11/28 12:18:03;;;;;;;9.73;7.03;;;8.80;99.90;;;;;;1915532;75;21106;-87
2022/11/28 12:21:11;;;;;;;13.62;7.95;;;8.80;99.90;;;;;;1903549;75;21192;-87
2022/11/28 12:24:11;;;;;;;13.93;9.95;;;8.80;99.90;;;;;;1900916;75;21103;-87
2022/11/28 12:29:58;;;;;;;16.62;9.75;;;8.80;99.90;;;;;;1952118;72;22179;-88
2022/11/28 12:32:55;;;;;;;15.78;8.93;;;8.90;99.90;;;;;;1925134;74;21102;-87
2022/11/28 12:35:51;;;;;;;17.17;9.73;;;8.80;99.90;;;;;;1913239;74;21119;-87
2022/11/28 12:38:53;;;;;;;12.82;7.83;;;8.80;99.90;;;;;;1931398;74;21089;-87
2022/11/28 12:42:14;;;;;;;11.65;7.75;;;8.80;99.90;;;;;;1932618;74;21117;-88
2022/11/28 12:45:29;;;;;;;10.90;7.25;;;8.70;99.90;;;;;;1895570;75;21493;-87
2022/11/28 12:48:36;;;;;;;10.05;7.50;;;8.70;99.90;;;;;;1905808;75;21220;-87
2022/11/28 12:51:36;;;;;;;11.90;8.60;;;8.70;99.90;;;;;;1930236;74;21094;-88
2022/11/28 12:54:37;;;;;;;10.88;7.20;;;8.70;99.90;;;;;;1920799;74;21198;-87
2022/11/28 12:57:32;;;;;;;14.63;8.65;;;8.70;99.90;;;;;;1922850;74;21171;-87
2022/11/28 13:00:26;;;;;;;15.20;8.45;;;8.80;99.90;;;;;;1922036;74;21210;-88
2022/11/28 13:03:27;;;;;;;9.65;7.03;;;8.80;99.90;;;;;;1899225;75;21101;-88
2022/11/28 13:06:26;;;;;;;10.43;7.03;;;8.70;99.90;;;;;;1895466;75;21161;-88
2022/11/28 13:09:30;;;;;;;12.60;6.62;;;8.60;99.90;;;;;;1916266;74;21131;-88
2022/11/28 13:12:25;;;;;;;12.65;8.23;;;8.50;99.90;;;;;;1909246;73;21135;-88
2022/11/28 13:15:23;;;;;;;11.97;7.45;;;8.50;99.90;;;;;;1923342;74;21101;-87
2022/11/28 13:18:28;;;;;;;10.53;7.83;;;8.50;99.90;;;;;;1925959;74;21083;-87
2022/11/28 13:21:26;;;;;;;11.00;7.17;;;8.50;99.90;;;;;;1901584;75;21651;-88
2022/11/28 13:24:22;;;;;;;11.45;6.83;;;8.50;99.90;;;;;;1907622;74;21176;-88
2022/11/28 13:27:20;;;;;;;10.40;5.87;;;8.60;99.90;;;;;;1922888;74;21089;-88
2022/11/28 13:30:24;;;;;;;9.27;6.27;;;8.60;99.90;;;;;;1908997;74;21138;-88
2022/11/28 13:33:27;;;;;;;10.13;5.75;;;8.50;99.90;;;;;;1903761;74;21933;-88
2022/11/28 13:36:24;;;;;;;8.28;5.97;;;8.50;99.90;;;;;;1903830;74;21186;-87
2022/11/28 13:39:20;;;;;;;9.10;6.30;;;8.50;99.90;;;;;;1846835;76;21145;-87
2022/11/28 13:42:22;;;;;;;8.38;6.65;;;8.50;99.90;;;;;;1908172;74;21115;-87
2022/11/28 13:45:25;;;;;;;10.65;6.12;;;8.50;99.90;;;;;;1895373;75;21150;-89
2022/11/28 13:48:52;;;;;;;11.40;5.83;;;8.50;99.90;;;;;;1894144;75;21130;-87
2022/11/28 13:51:46;;;;;;;9.33;6.42;;;8.60;99.90;;;;;;1895192;75;21261;-89
2022/11/28 13:54:46;;;;;;;9.48;6.50;;;8.60;99.90;;;;;;1889132;75;21158;-88
2022/11/28 13:57:40;;;;;;;12.78;7.53;;;8.60;99.90;;;;;;1916620;74;21053;-88
2022/11/28 14:00:31;;;;;;;9.95;7.87;;;8.60;99.90;;;;;;1932644;74;21147;-87
2022/11/28 14:03:24;;;;;;;11.88;8.05;;;8.60;99.90;;;;;;1927704;74;21172;-89
2022/11/28 14:06:20;;;;;;;14.13;8.95;;;8.60;99.90;;;;;;1915535;75;21158;-88
2022/11/28 14:09:23;;;;;;;16.97;8.73;;;8.60;99.90;;;;;;1921212;74;21183;-87
2022/11/28 14:12:19;;;;;;;14.28;8.90;;;8.60;99.90;;;;;;1917293;74;21068;-87
2022/11/28 14:15:20;;;;;;;12.28;9.28;;;8.50;99.90;;;;;;1896172;74;21203;-87
2022/11/28 14:18:24;;;;;;;13.62;8.58;;;8.50;99.90;;;;;;1931242;74;21184;-89
2022/11/28 14:21:24;;;;;;;14.03;8.80;;;8.40;99.90;;;;;;1938164;74;21174;-87
2022/11/28 14:24:20;;;;;;;10.88;8.13;;;8.40;99.90;;;;;;1929841;74;21165;-89
2022/11/28 14:27:18;;;;;;;9.08;6.65;;;8.50;99.90;;;;;;1930779;74;21168;-89
2022/11/28 14:30:23;;;;;;;10.15;7.97;;;8.50;99.90;;;;;;1935855;73;21090;-87
2022/11/28 14:33:21;;;;;;;10.78;7.58;;;8.40;99.90;;;;;;1921348;74;21190;-89
2022/11/28 14:36:40;;;;;;;11.48;7.62;;;8.40;99.90;;;;;;1907405;74;21145;-88
2022/11/28 14:39:35;;;;;;;11.60;7.35;;;8.50;99.90;;;;;;1912758;74;21110;-87
2022/11/28 14:42:39;;;;;;;12.30;8.48;;;8.50;99.90;;;;;;1904703;75;21122;-87
2022/11/28 14:45:45;;;;;;;14.15;8.38;;;8.50;99.90;;;;;;1886314;75;21154;-87
2022/11/28 14:48:41;;;;;;;12.40;7.85;;;8.40;99.90;;;;;;1901565;75;21102;-87
2022/11/28 14:52:12;;;;;;;13.05;8.25;;;8.30;99.90;;;;;;1899848;74;21638;-87
2022/11/28 14:55:08;;;;;;;12.93;7.55;;;8.30;99.90;;;;;;1897777;75;21159;-88
2022/11/28 14:58:02;;;;;;;12.00;7.78;;;8.20;99.90;;;;;;1893836;75;21131;-88
2022/11/28 15:00:58;;;;;;;8.58;6.35;;;8.10;99.90;;;;;;1898732;75;21049;-87
2022/11/28 15:03:54;;;;;;;9.05;6.22;;;8.00;99.90;;;;;;1893809;75;21546;-87
2022/11/28 15:06:49;;;;;;;11.50;6.70;;;8.10;99.90;;;;;;1897734;75;21111;-88
2022/11/28 15:09:44;;;;;;;10.58;7.20;;;8.00;99.90;;;;;;1896278;74;21073;-88
2022/11/28 15:15:19;;;;;;;8.83;6.30;;;8.00;99.90;;;;;;1943293;72;22254;-88
2022/11/28 15:18:12;;;;;;;9.35;5.92;;;8.00;99.90;;;;;;1872898;76;21555;-87
2022/11/28 15:21:08;;;;;;;11.35;6.70;;;8.00;99.90;;;;;;1878992;73;21446;-87
2022/11/28 15:24:00;;;;;;;10.05;6.62;;;8.00;99.90;;;;;;1887861;73;21457;-89
2022/11/28 15:26:52;;;;;;;12.10;6.90;;;8.00;99.90;;;;;;1893953;75;21107;-87
2022/11/28 15:29:54;;;;;;;11.70;8.65;;;8.00;99.90;;;;;;1894201;75;21123;-86
2022/11/28 15:32:46;;;;;;;10.78;8.85;;;8.00;99.90;;;;;;1872218;76;21116;-88
2022/11/28 15:35:39;;;;;;;11.08;9.15;;;7.90;99.90;;;;;;1886722;75;21083;-88
2022/11/28 15:38:32;;;;;;;14.80;10.08;;;7.90;99.90;;;;;;1883025;75;21083;-87
2022/11/28 15:41:25;;;;;;;12.75;9.90;;;7.80;99.90;;;;;;1882774;75;21099;-87
2022/11/28 15:44:18;;;;;;;13.15;10.10;;;7.90;99.90;;;;;;1894361;75;21313;-88
2022/11/28 15:47:18;;;;;;;12.20;10.25;;;7.90;99.90;;;;;;1851885;77;21058;-88
2022/11/28 15:50:19;;;;;;;13.70;10.23;;;7.90;99.90;;;;;;1872295;76;21161;-87
2022/11/28 15:53:18;;;;;;;12.05;9.83;;;8.00;99.90;;;;;;1893639;75;21412;-87
2022/11/28 15:56:14;;;;;;;10.38;6.83;;;8.00;99.90;;;;;;1872239;75;21126;-88